Aviation Digital Data Service (ADDS)

Output produced by TAFs form (0544 UTC 11 December 2017)
found at http://www.aviationweather.gov/adds/tafs/
 
TAF LFMY 110516Z 1103/1203 15015G25KT 9999 BKN020 
     TEMPO 1105/1117 4000 RA BKN014 
     PROB40 
     TEMPO 1112/1114 27010KT 
     BECMG 1114/1116 30007KT CAVOK 
     BECMG 1120/1123 VRB03KT